sensor_id;sensor_type;location;lat;lon;timestamp;temperature;humidity
45463;SHT31;31209;49.456;11.134;2022-09-09T00:00:48;15.16;97.66
45463;SHT31;31209;49.456;11.134;2022-09-09T00:01:54;15.16;97.75
45463;SHT31;31209;49.456;11.134;2022-09-09T00:03:04;15.16;97.72
45463;SHT31;31209;49.456;11.134;2022-09-09T00:04:13;15.16;97.71
45463;SHT31;31209;49.456;11.134;2022-09-09T00:05:19;15.18;97.67
45463;SHT31;31209;49.456;11.134;2022-09-09T00:06:26;15.17;97.66
45463;SHT31;31209;49.456;11.134;2022-09-09T00:07:37;15.21;97.61
45463;SHT31;31209;49.456;11.134;2022-09-09T00:08:46;15.16;97.65
45463;SHT31;31209;49.456;11.134;2022-09-09T00:09:56;15.2;97.78
45463;SHT31;31209;49.456;11.134;2022-09-09T00:11:03;15.18;97.79
45463;SHT31;31209;49.456;11.134;2022-09-09T00:12:11;15.23;97.69
45463;SHT31;31209;49.456;11.134;2022-09-09T00:13:18;15.21;97.68
45463;SHT31;31209;49.456;11.134;2022-09-09T00:14:30;15.2;97.78
45463;SHT31;31209;49.456;11.134;2022-09-09T00:15:39;15.18;97.71
45463;SHT31;31209;49.456;11.134;2022-09-09T00:16:44;15.2;97.67
45463;SHT31;31209;49.456;11.134;2022-09-09T00:17:53;15.2;97.69
45463;SHT31;31209;49.456;11.134;2022-09-09T00:19:02;15.18;97.72
45463;SHT31;31209;49.456;11.134;2022-09-09T00:20:12;15.21;97.65
45463;SHT31;31209;49.456;11.134;2022-09-09T00:21:14;15.21;97.58
45463;SHT31;31209;49.456;11.134;2022-09-09T00:22:18;15.23;97.53
45463;SHT31;31209;49.456;11.134;2022-09-09T00:23:24;15.23;97.49
45463;SHT31;31209;49.456;11.134;2022-09-09T00:24:29;15.18;97.62
45463;SHT31;31209;49.456;11.134;2022-09-09T00:25:37;15.14;97.53
45463;SHT31;31209;49.456;11.134;2022-09-09T00:26:43;15.16;97.46
45463;SHT31;31209;49.456;11.134;2022-09-09T00:27:47;15.13;97.64
45463;SHT31;31209;49.456;11.134;2022-09-09T00:28:54;15.09;97.68
45463;SHT31;31209;49.456;11.134;2022-09-09T00:29:59;15.14;97.72
45463;SHT31;31209;49.456;11.134;2022-09-09T00:31:11;15.16;97.51
45463;SHT31;31209;49.456;11.134;2022-09-09T00:32:14;15.13;97.62
45463;SHT31;31209;49.456;11.134;2022-09-09T00:33:19;15.1;97.68
45463;SHT31;31209;49.456;11.134;2022-09-09T00:34:23;15.1;97.49
45463;SHT31;31209;49.456;11.134;2022-09-09T00:35:27;15.13;97.46
45463;SHT31;31209;49.456;11.134;2022-09-09T00:36:31;15.12;97.54
45463;SHT31;31209;49.456;11.134;2022-09-09T00:37:33;15.16;97.59
45463;SHT31;31209;49.456;11.134;2022-09-09T00:38:37;15.14;97.61
45463;SHT31;31209;49.456;11.134;2022-09-09T00:39:42;15.12;97.83
45463;SHT31;31209;49.456;11.134;2022-09-09T00:40:49;15.16;97.85
45463;SHT31;31209;49.456;11.134;2022-09-09T00:42:02;15.14;97.75
45463;SHT31;31209;49.456;11.134;2022-09-09T00:43:21;15.07;97.75
45463;SHT31;31209;49.456;11.134;2022-09-09T00:44:30;15.1;97.71
45463;SHT31;31209;49.456;11.134;2022-09-09T00:45:48;15.12;97.6
45463;SHT31;31209;49.456;11.134;2022-09-09T00:47:03;15.06;97.67
45463;SHT31;31209;49.456;11.134;2022-09-09T00:48:08;15.07;97.57
45463;SHT31;31209;49.456;11.134;2022-09-09T00:49:18;15.0;97.5
45463;SHT31;31209;49.456;11.134;2022-09-09T00:50:32;14.96;97.65
45463;SHT31;31209;49.456;11.134;2022-09-09T00:51:44;14.92;97.64
45463;SHT31;31209;49.456;11.134;2022-09-09T00:52:55;14.92;97.65
45463;SHT31;31209;49.456;11.134;2022-09-09T00:54:12;14.92;97.73
45463;SHT31;31209;49.456;11.134;2022-09-09T00:55:20;14.92;97.77
45463;SHT31;31209;49.456;11.134;2022-09-09T00:56:27;14.9;97.69
45463;SHT31;31209;49.456;11.134;2022-09-09T00:57:31;14.89;97.65
45463;SHT31;31209;49.456;11.134;2022-09-09T00:58:32;14.89;97.58
45463;SHT31;31209;49.456;11.134;2022-09-09T00:59:44;14.82;97.82
45463;SHT31;31209;49.456;11.134;2022-09-09T01:00:50;14.72;97.86
45463;SHT31;31209;49.456;11.134;2022-09-09T01:01:53;14.73;97.92
45463;SHT31;31209;49.456;11.134;2022-09-09T01:03:06;14.73;97.8
45463;SHT31;31209;49.456;11.134;2022-09-09T01:04:13;14.69;98.07
45463;SHT31;31209;49.456;11.134;2022-09-09T01:05:33;14.65;98.06
45463;SHT31;31209;49.456;11.134;2022-09-09T01:06:37;14.65;98.0
45463;SHT31;31209;49.456;11.134;2022-09-09T01:07:38;14.67;98.0
45463;SHT31;31209;49.456;11.134;2022-09-09T01:08:52;14.63;97.9
45463;SHT31;31209;49.456;11.134;2022-09-09T01:09:59;14.63;97.91
45463;SHT31;31209;49.456;11.134;2022-09-09T01:11:01;14.61;97.87
45463;SHT31;31209;49.456;11.134;2022-09-09T01:12:09;14.56;98.07
45463;SHT31;31209;49.456;11.134;2022-09-09T01:13:16;14.53;98.05
45463;SHT31;31209;49.456;11.134;2022-09-09T01:14:30;14.49;98.3
45463;SHT31;31209;49.456;11.134;2022-09-09T01:15:34;14.53;98.25
45463;SHT31;31209;49.456;11.134;2022-09-09T01:16:36;14.48;98.31
45463;SHT31;31209;49.456;11.134;2022-09-09T01:17:46;14.46;98.3
45463;SHT31;31209;49.456;11.134;2022-09-09T01:18:52;14.48;98.37
45463;SHT31;31209;49.456;11.134;2022-09-09T01:20:02;14.49;98.37
45463;SHT31;31209;49.456;11.134;2022-09-09T01:21:08;14.52;98.22
45463;SHT31;31209;49.456;11.134;2022-09-09T01:22:23;14.56;98.22
45463;SHT31;31209;49.456;11.134;2022-09-09T01:23:38;14.55;98.08
45463;SHT31;31209;49.456;11.134;2022-09-09T01:24:53;14.55;98.13
45463;SHT31;31209;49.456;11.134;2022-09-09T01:26:10;14.52;98.2
45463;SHT31;31209;49.456;11.134;2022-09-09T01:27:13;14.45;98.14
45463;SHT31;31209;49.456;11.134;2022-09-09T01:28:21;14.48;98.23
45463;SHT31;31209;49.456;11.134;2022-09-09T01:29:23;14.55;98.31
45463;SHT31;31209;49.456;11.134;2022-09-09T01:30:25;14.48;98.25
45463;SHT31;31209;49.456;11.134;2022-09-09T01:31:29;14.49;98.26
45463;SHT31;31209;49.456;11.134;2022-09-09T01:32:41;14.52;98.22
45463;SHT31;31209;49.456;11.134;2022-09-09T01:33:43;14.52;98.19
45463;SHT31;31209;49.456;11.134;2022-09-09T01:34:44;14.48;98.28
45463;SHT31;31209;49.456;11.134;2022-09-09T01:35:49;14.46;98.33
45463;SHT31;31209;49.456;11.134;2022-09-09T01:36:57;14.46;98.31
45463;SHT31;31209;49.456;11.134;2022-09-09T01:38:00;14.45;98.33
45463;SHT31;31209;49.456;11.134;2022-09-09T01:39:01;14.42;98.29
45463;SHT31;31209;49.456;11.134;2022-09-09T01:40:03;14.45;98.3
45463;SHT31;31209;49.456;11.134;2022-09-09T01:41:04;14.42;98.36
45463;SHT31;31209;49.456;11.134;2022-09-09T01:42:08;14.45;98.42
45463;SHT31;31209;49.456;11.134;2022-09-09T01:43:10;14.43;98.25
45463;SHT31;31209;49.456;11.134;2022-09-09T01:44:12;14.41;98.28
45463;SHT31;31209;49.456;11.134;2022-09-09T01:45:13;14.42;98.36
45463;SHT31;31209;49.456;11.134;2022-09-09T01:46:14;14.45;98.32
45463;SHT31;31209;49.456;11.134;2022-09-09T01:47:15;14.46;98.38
45463;SHT31;31209;49.456;11.134;2022-09-09T01:48:19;14.48;98.42
45463;SHT31;31209;49.456;11.134;2022-09-09T01:49:21;14.48;98.33
45463;SHT31;31209;49.456;11.134;2022-09-09T01:50:23;14.52;98.33
45463;SHT31;31209;49.456;11.134;2022-09-09T01:51:24;14.56;98.38
45463;SHT31;31209;49.456;11.134;2022-09-09T01:52:25;14.58;98.33
45463;SHT31;31209;49.456;11.134;2022-09-09T01:53:26;14.55;98.37
45463;SHT31;31209;49.456;11.134;2022-09-09T01:54:29;14.58;98.39
45463;SHT31;31209;49.456;11.134;2022-09-09T01:55:36;14.58;98.42
45463;SHT31;31209;49.456;11.134;2022-09-09T01:56:45;14.56;98.42
45463;SHT31;31209;49.456;11.134;2022-09-09T01:57:54;14.56;98.46
45463;SHT31;31209;49.456;11.134;2022-09-09T01:59:09;14.61;98.34
45463;SHT31;31209;49.456;11.134;2022-09-09T02:00:15;14.61;98.38
45463;SHT31;31209;49.456;11.134;2022-09-09T02:01:26;14.62;98.35
45463;SHT31;31209;49.456;11.134;2022-09-09T02:02:32;14.63;98.29
45463;SHT31;31209;49.456;11.134;2022-09-09T02:03:36;14.63;98.15
45463;SHT31;31209;49.456;11.134;2022-09-09T02:04:39;14.62;98.22
45463;SHT31;31209;49.456;11.134;2022-09-09T02:05:45;14.62;98.24
45463;SHT31;31209;49.456;11.134;2022-09-09T02:06:54;14.61;98.27
45463;SHT31;31209;49.456;11.134;2022-09-09T02:08:00;14.61;98.31
45463;SHT31;31209;49.456;11.134;2022-09-09T02:09:05;14.59;98.32
45463;SHT31;31209;49.456;11.134;2022-09-09T02:10:11;14.61;98.31
45463;SHT31;31209;49.456;11.134;2022-09-09T02:11:20;14.61;98.4
45463;SHT31;31209;49.456;11.134;2022-09-09T02:12:24;14.62;98.38
45463;SHT31;31209;49.456;11.134;2022-09-09T02:13:26;14.58;98.36
45463;SHT31;31209;49.456;11.134;2022-09-09T02:14:32;14.61;98.33
45463;SHT31;31209;49.456;11.134;2022-09-09T02:15:41;14.62;98.34
45463;SHT31;31209;49.456;11.134;2022-09-09T02:16:47;14.62;98.36
45463;SHT31;31209;49.456;11.134;2022-09-09T02:17:50;14.59;98.43
45463;SHT31;31209;49.456;11.134;2022-09-09T02:18:56;14.56;98.49
45463;SHT31;31209;49.456;11.134;2022-09-09T02:20:03;14.56;98.51
45463;SHT31;31209;49.456;11.134;2022-09-09T02:21:06;14.61;98.55
45463;SHT31;31209;49.456;11.134;2022-09-09T02:22:08;14.62;98.69
45463;SHT31;31209;49.456;11.134;2022-09-09T02:23:10;14.62;98.69
45463;SHT31;31209;49.456;11.134;2022-09-09T02:24:13;14.62;98.62
45463;SHT31;31209;49.456;11.134;2022-09-09T02:25:18;14.61;98.55
45463;SHT31;31209;49.456;11.134;2022-09-09T02:26:21;14.65;98.58
45463;SHT31;31209;49.456;11.134;2022-09-09T02:27:23;14.69;98.62
45463;SHT31;31209;49.456;11.134;2022-09-09T02:28:26;14.72;98.53
45463;SHT31;31209;49.456;11.134;2022-09-09T02:29:33;14.75;98.44
45463;SHT31;31209;49.456;11.134;2022-09-09T02:30:36;14.77;98.53
45463;SHT31;31209;49.456;11.134;2022-09-09T02:31:39;14.8;98.37
45463;SHT31;31209;49.456;11.134;2022-09-09T02:32:42;14.76;98.46
45463;SHT31;31209;49.456;11.134;2022-09-09T02:33:47;14.75;98.44
45463;SHT31;31209;49.456;11.134;2022-09-09T02:34:55;14.8;98.45
45463;SHT31;31209;49.456;11.134;2022-09-09T02:35:59;14.8;98.49
45463;SHT31;31209;49.456;11.134;2022-09-09T02:37:00;14.82;98.46
45463;SHT31;31209;49.456;11.134;2022-09-09T02:38:06;14.86;98.34
45463;SHT31;31209;49.456;11.134;2022-09-09T02:39:09;14.89;98.24
45463;SHT31;31209;49.456;11.134;2022-09-09T02:40:11;14.82;98.3
45463;SHT31;31209;49.456;11.134;2022-09-09T02:41:12;14.8;98.43
45463;SHT31;31209;49.456;11.134;2022-09-09T02:42:13;14.83;98.35
45463;SHT31;31209;49.456;11.134;2022-09-09T02:43:14;14.82;98.41
45463;SHT31;31209;49.456;11.134;2022-09-09T02:44:17;14.87;98.4
45463;SHT31;31209;49.456;11.134;2022-09-09T02:45:19;14.9;98.36
45463;SHT31;31209;49.456;11.134;2022-09-09T02:46:32;14.96;98.28
45463;SHT31;31209;49.456;11.134;2022-09-09T02:47:40;14.94;98.15
45463;SHT31;31209;49.456;11.134;2022-09-09T02:48:52;14.94;98.17
45463;SHT31;31209;49.456;11.134;2022-09-09T02:50:05;14.97;98.34
45463;SHT31;31209;49.456;11.134;2022-09-09T02:51:14;14.98;98.25
45463;SHT31;31209;49.456;11.134;2022-09-09T02:52:19;15.05;98.19
45463;SHT31;31209;49.456;11.134;2022-09-09T02:53:25;15.05;98.27
45463;SHT31;31209;49.456;11.134;2022-09-09T02:54:31;15.03;98.38
45463;SHT31;31209;49.456;11.134;2022-09-09T02:55:38;15.05;98.36
45463;SHT31;31209;49.456;11.134;2022-09-09T02:56:43;15.05;98.48
45463;SHT31;31209;49.456;11.134;2022-09-09T02:57:49;15.09;98.42
45463;SHT31;31209;49.456;11.134;2022-09-09T02:58:50;15.1;98.56
45463;SHT31;31209;49.456;11.134;2022-09-09T02:59:51;15.06;98.38
45463;SHT31;31209;49.456;11.134;2022-09-09T03:00:52;15.13;98.42
45463;SHT31;31209;49.456;11.134;2022-09-09T03:01:53;15.13;98.38
45463;SHT31;31209;49.456;11.134;2022-09-09T03:02:54;15.17;98.4
45463;SHT31;31209;49.456;11.134;2022-09-09T03:03:55;15.21;98.43
45463;SHT31;31209;49.456;11.134;2022-09-09T03:04:56;15.21;98.23
45463;SHT31;31209;49.456;11.134;2022-09-09T03:05:57;15.27;98.3
45463;SHT31;31209;49.456;11.134;2022-09-09T03:06:58;15.33;98.14
45463;SHT31;31209;49.456;11.134;2022-09-09T03:07:59;15.26;98.18
45463;SHT31;31209;49.456;11.134;2022-09-09T03:09:00;15.3;98.11
45463;SHT31;31209;49.456;11.134;2022-09-09T03:10:01;15.28;98.2
45463;SHT31;31209;49.456;11.134;2022-09-09T03:11:02;15.31;98.27
45463;SHT31;31209;49.456;11.134;2022-09-09T03:12:03;15.33;98.27
45463;SHT31;31209;49.456;11.134;2022-09-09T03:13:04;15.37;98.19
45463;SHT31;31209;49.456;11.134;2022-09-09T03:14:05;15.38;98.28
45463;SHT31;31209;49.456;11.134;2022-09-09T03:15:07;15.37;98.21
45463;SHT31;31209;49.456;11.134;2022-09-09T03:16:08;15.37;98.19
45463;SHT31;31209;49.456;11.134;2022-09-09T03:17:09;15.37;98.23
45463;SHT31;31209;49.456;11.134;2022-09-09T03:18:10;15.38;98.34
45463;SHT31;31209;49.456;11.134;2022-09-09T03:19:11;15.4;98.29
45463;SHT31;31209;49.456;11.134;2022-09-09T03:20:12;15.4;98.3
45463;SHT31;31209;49.456;11.134;2022-09-09T03:21:13;15.45;98.29
45463;SHT31;31209;49.456;11.134;2022-09-09T03:22:14;15.47;98.31
45463;SHT31;31209;49.456;11.134;2022-09-09T03:23:15;15.51;98.38
45463;SHT31;31209;49.456;11.134;2022-09-09T03:24:16;15.51;98.27
45463;SHT31;31209;49.456;11.134;2022-09-09T03:25:17;15.48;98.19
45463;SHT31;31209;49.456;11.134;2022-09-09T03:26:18;15.48;98.19
45463;SHT31;31209;49.456;11.134;2022-09-09T03:27:19;15.45;98.16
45463;SHT31;31209;49.456;11.134;2022-09-09T03:28:20;15.5;98.13
45463;SHT31;31209;49.456;11.134;2022-09-09T03:29:22;15.54;98.16
45463;SHT31;31209;49.456;11.134;2022-09-09T03:30:23;15.54;98.23
45463;SHT31;31209;49.456;11.134;2022-09-09T03:31:24;15.52;98.17
45463;SHT31;31209;49.456;11.134;2022-09-09T03:32:25;15.54;98.18
45463;SHT31;31209;49.456;11.134;2022-09-09T03:33:26;15.54;98.28
45463;SHT31;31209;49.456;11.134;2022-09-09T03:34:27;15.58;98.4
45463;SHT31;31209;49.456;11.134;2022-09-09T03:35:28;15.6;98.35
45463;SHT31;31209;49.456;11.134;2022-09-09T03:36:29;15.61;98.38
45463;SHT31;31209;49.456;11.134;2022-09-09T03:37:30;15.61;98.4
45463;SHT31;31209;49.456;11.134;2022-09-09T03:38:30;15.64;98.29
45463;SHT31;31209;49.456;11.134;2022-09-09T03:39:31;15.62;98.15
45463;SHT31;31209;49.456;11.134;2022-09-09T03:40:32;15.64;98.17
45463;SHT31;31209;49.456;11.134;2022-09-09T03:41:33;15.6;98.08
45463;SHT31;31209;49.456;11.134;2022-09-09T03:42:34;15.57;98.1
45463;SHT31;31209;49.456;11.134;2022-09-09T03:43:34;15.57;98.18
45463;SHT31;31209;49.456;11.134;2022-09-09T03:44:35;15.58;98.12
45463;SHT31;31209;49.456;11.134;2022-09-09T03:45:36;15.52;98.24
45463;SHT31;31209;49.456;11.134;2022-09-09T03:46:37;15.52;98.23
45463;SHT31;31209;49.456;11.134;2022-09-09T03:47:37;15.52;98.23
45463;SHT31;31209;49.456;11.134;2022-09-09T03:48:38;15.58;98.15
45463;SHT31;31209;49.456;11.134;2022-09-09T03:49:39;15.54;98.17
45463;SHT31;31209;49.456;11.134;2022-09-09T03:50:44;15.54;98.21
45463;SHT31;31209;49.456;11.134;2022-09-09T03:51:45;15.57;98.18
45463;SHT31;31209;49.456;11.134;2022-09-09T03:52:46;15.55;98.14
45463;SHT31;31209;49.456;11.134;2022-09-09T03:53:47;15.54;98.32
45463;SHT31;31209;49.456;11.134;2022-09-09T03:54:48;15.54;98.33
45463;SHT31;31209;49.456;11.134;2022-09-09T03:55:51;15.57;98.45
45463;SHT31;31209;49.456;11.134;2022-09-09T03:56:52;15.58;98.43
45463;SHT31;31209;49.456;11.134;2022-09-09T03:57:53;15.6;98.48
45463;SHT31;31209;49.456;11.134;2022-09-09T03:58:54;15.62;98.29
45463;SHT31;31209;49.456;11.134;2022-09-09T03:59:55;15.58;98.27
45463;SHT31;31209;49.456;11.134;2022-09-09T04:00:57;15.6;98.18
45463;SHT31;31209;49.456;11.134;2022-09-09T04:01:59;15.62;98.21
45463;SHT31;31209;49.456;11.134;2022-09-09T04:02:59;15.64;98.29
45463;SHT31;31209;49.456;11.134;2022-09-09T04:04:00;15.65;98.29
45463;SHT31;31209;49.456;11.134;2022-09-09T04:05:01;15.65;98.23
45463;SHT31;31209;49.456;11.134;2022-09-09T04:06:04;15.65;98.29
45463;SHT31;31209;49.456;11.134;2022-09-09T04:07:05;15.67;98.21
45463;SHT31;31209;49.456;11.134;2022-09-09T04:08:06;15.64;98.21
45463;SHT31;31209;49.456;11.134;2022-09-09T04:09:07;15.65;98.23
45463;SHT31;31209;49.456;11.134;2022-09-09T04:10:08;15.62;98.28
45463;SHT31;31209;49.456;11.134;2022-09-09T04:11:09;15.67;98.27
45463;SHT31;31209;49.456;11.134;2022-09-09T04:12:14;15.71;98.22
45463;SHT31;31209;49.456;11.134;2022-09-09T04:13:16;15.71;98.31
45463;SHT31;31209;49.456;11.134;2022-09-09T04:14:17;15.72;98.3
45463;SHT31;31209;49.456;11.134;2022-09-09T04:15:18;15.64;98.27
45463;SHT31;31209;49.456;11.134;2022-09-09T04:16:18;15.64;98.32
45463;SHT31;31209;49.456;11.134;2022-09-09T04:17:19;15.67;98.3
45463;SHT31;31209;49.456;11.134;2022-09-09T04:18:20;15.67;98.27
45463;SHT31;31209;49.456;11.134;2022-09-09T04:19:21;15.71;98.3
45463;SHT31;31209;49.456;11.134;2022-09-09T04:20:22;15.72;98.24
45463;SHT31;31209;49.456;11.134;2022-09-09T04:21:23;15.71;98.24
45463;SHT31;31209;49.456;11.134;2022-09-09T04:22:24;15.74;98.26
45463;SHT31;31209;49.456;11.134;2022-09-09T04:23:25;15.75;98.29
45463;SHT31;31209;49.456;11.134;2022-09-09T04:24:27;15.78;98.33
45463;SHT31;31209;49.456;11.134;2022-09-09T04:25:27;15.81;98.29
45463;SHT31;31209;49.456;11.134;2022-09-09T04:26:28;15.8;98.21
45463;SHT31;31209;49.456;11.134;2022-09-09T04:27:29;15.78;98.15
45463;SHT31;31209;49.456;11.134;2022-09-09T04:28:33;15.8;98.01
45463;SHT31;31209;49.456;11.134;2022-09-09T04:29:34;15.72;98.06
45463;SHT31;31209;49.456;11.134;2022-09-09T04:30:35;15.68;98.06
45463;SHT31;31209;49.456;11.134;2022-09-09T04:31:36;15.68;98.16
45463;SHT31;31209;49.456;11.134;2022-09-09T04:32:36;15.68;98.18
45463;SHT31;31209;49.456;11.134;2022-09-09T04:33:37;15.64;98.13
45463;SHT31;31209;49.456;11.134;2022-09-09T04:34:38;15.65;98.19
45463;SHT31;31209;49.456;11.134;2022-09-09T04:35:39;15.64;98.22
45463;SHT31;31209;49.456;11.134;2022-09-09T04:36:44;15.69;98.29
45463;SHT31;31209;49.456;11.134;2022-09-09T04:37:45;15.72;98.24
45463;SHT31;31209;49.456;11.134;2022-09-09T04:38:46;15.72;98.18
45463;SHT31;31209;49.456;11.134;2022-09-09T04:39:47;15.72;98.06
45463;SHT31;31209;49.456;11.134;2022-09-09T04:40:48;15.62;98.14
45463;SHT31;31209;49.456;11.134;2022-09-09T04:41:49;15.55;98.24
45463;SHT31;31209;49.456;11.134;2022-09-09T04:42:50;15.58;98.41
45463;SHT31;31209;49.456;11.134;2022-09-09T04:43:51;15.64;98.39
45463;SHT31;31209;49.456;11.134;2022-09-09T04:44:52;15.68;98.44
45463;SHT31;31209;49.456;11.134;2022-09-09T04:45:53;15.72;98.44
45463;SHT31;31209;49.456;11.134;2022-09-09T04:46:54;15.75;98.41
45463;SHT31;31209;49.456;11.134;2022-09-09T04:47:54;15.75;98.28
45463;SHT31;31209;49.456;11.134;2022-09-09T04:48:55;15.75;98.26
45463;SHT31;31209;49.456;11.134;2022-09-09T04:49:56;15.74;98.17
45463;SHT31;31209;49.456;11.134;2022-09-09T04:50:59;15.74;98.1
45463;SHT31;31209;49.456;11.134;2022-09-09T04:52:00;15.74;97.94
45463;SHT31;31209;49.456;11.134;2022-09-09T04:53:01;15.69;97.97
45463;SHT31;31209;49.456;11.134;2022-09-09T04:54:02;15.67;98.08
45463;SHT31;31209;49.456;11.134;2022-09-09T04:55:04;15.64;98.09
45463;SHT31;31209;49.456;11.134;2022-09-09T04:56:07;15.67;98.0
45463;SHT31;31209;49.456;11.134;2022-09-09T04:57:10;15.65;98.04
45463;SHT31;31209;49.456;11.134;2022-09-09T04:58:11;15.65;98.04
45463;SHT31;31209;49.456;11.134;2022-09-09T04:59:12;15.58;98.01
45463;SHT31;31209;49.456;11.134;2022-09-09T05:00:14;15.62;98.18
45463;SHT31;31209;49.456;11.134;2022-09-09T05:01:16;15.62;98.19
45463;SHT31;31209;49.456;11.134;2022-09-09T05:02:17;15.64;98.09
45463;SHT31;31209;49.456;11.134;2022-09-09T05:03:18;15.64;98.06
45463;SHT31;31209;49.456;11.134;2022-09-09T05:04:19;15.67;98.0
45463;SHT31;31209;49.456;11.134;2022-09-09T05:05:19;15.67;97.94
45463;SHT31;31209;49.456;11.134;2022-09-09T05:06:22;15.69;98.05
45463;SHT31;31209;49.456;11.134;2022-09-09T05:07:22;15.72;98.07
45463;SHT31;31209;49.456;11.134;2022-09-09T05:08:23;15.71;98.14
45463;SHT31;31209;49.456;11.134;2022-09-09T05:09:25;15.72;98.07
45463;SHT31;31209;49.456;11.134;2022-09-09T05:10:26;15.68;98.07
45463;SHT31;31209;49.456;11.134;2022-09-09T05:11:29;15.71;98.14
45463;SHT31;31209;49.456;11.134;2022-09-09T05:12:29;15.76;98.22
45463;SHT31;31209;49.456;11.134;2022-09-09T05:13:30;15.81;98.17
45463;SHT31;31209;49.456;11.134;2022-09-09T05:14:31;15.81;98.05
45463;SHT31;31209;49.456;11.134;2022-09-09T05:15:32;15.78;97.95
45463;SHT31;31209;49.456;11.134;2022-09-09T05:16:33;15.75;98.16
45463;SHT31;31209;49.456;11.134;2022-09-09T05:17:33;15.76;98.13
45463;SHT31;31209;49.456;11.134;2022-09-09T05:18:34;15.78;98.06
45463;SHT31;31209;49.456;11.134;2022-09-09T05:19:35;15.8;97.93
45463;SHT31;31209;49.456;11.134;2022-09-09T05:20:36;15.82;98.0
45463;SHT31;31209;49.456;11.134;2022-09-09T05:21:36;15.82;98.06
45463;SHT31;31209;49.456;11.134;2022-09-09T05:22:37;15.87;98.0
45463;SHT31;31209;49.456;11.134;2022-09-09T05:23:38;15.91;97.77
45463;SHT31;31209;49.456;11.134;2022-09-09T05:24:39;15.88;97.68
45463;SHT31;31209;49.456;11.134;2022-09-09T05:25:40;15.87;97.67
45463;SHT31;31209;49.456;11.134;2022-09-09T05:26:41;15.92;97.66
45463;SHT31;31209;49.456;11.134;2022-09-09T05:27:41;15.84;97.57
45463;SHT31;31209;49.456;11.134;2022-09-09T05:28:43;15.84;97.6
45463;SHT31;31209;49.456;11.134;2022-09-09T05:29:44;15.87;97.46
45463;SHT31;31209;49.456;11.134;2022-09-09T05:30:45;15.87;97.57
45463;SHT31;31209;49.456;11.134;2022-09-09T05:31:46;15.9;97.63
45463;SHT31;31209;49.456;11.134;2022-09-09T05:32:47;15.85;97.54
45463;SHT31;31209;49.456;11.134;2022-09-09T05:33:48;15.81;97.51
45463;SHT31;31209;49.456;11.134;2022-09-09T05:34:49;15.91;97.64
45463;SHT31;31209;49.456;11.134;2022-09-09T05:35:55;15.95;97.55
45463;SHT31;31209;49.456;11.134;2022-09-09T05:36:56;15.95;97.49
45463;SHT31;31209;49.456;11.134;2022-09-09T05:37:59;15.95;97.67
45463;SHT31;31209;49.456;11.134;2022-09-09T05:39:00;16.01;97.85
45463;SHT31;31209;49.456;11.134;2022-09-09T05:40:01;16.04;97.84
45463;SHT31;31209;49.456;11.134;2022-09-09T05:41:02;16.09;97.84
45463;SHT31;31209;49.456;11.134;2022-09-09T05:42:04;16.06;97.71
45463;SHT31;31209;49.456;11.134;2022-09-09T05:43:05;16.12;97.59
45463;SHT31;31209;49.456;11.134;2022-09-09T05:44:06;16.14;97.68
45463;SHT31;31209;49.456;11.134;2022-09-09T05:45:08;16.19;97.84
45463;SHT31;31209;49.456;11.134;2022-09-09T05:46:11;16.19;97.69
45463;SHT31;31209;49.456;11.134;2022-09-09T05:47:12;16.16;97.36
45463;SHT31;31209;49.456;11.134;2022-09-09T05:48:13;16.19;97.36
45463;SHT31;31209;49.456;11.134;2022-09-09T05:49:14;16.2;97.51
45463;SHT31;31209;49.456;11.134;2022-09-09T05:50:14;16.14;97.39
45463;SHT31;31209;49.456;11.134;2022-09-09T05:51:17;16.14;97.32
45463;SHT31;31209;49.456;11.134;2022-09-09T05:52:18;16.14;97.28
45463;SHT31;31209;49.456;11.134;2022-09-09T05:53:19;16.19;97.3
45463;SHT31;31209;49.456;11.134;2022-09-09T05:54:20;16.12;97.45
45463;SHT31;31209;49.456;11.134;2022-09-09T05:55:21;16.14;97.34
45463;SHT31;31209;49.456;11.134;2022-09-09T05:56:23;16.16;97.39
45463;SHT31;31209;49.456;11.134;2022-09-09T05:57:24;16.2;97.28
45463;SHT31;31209;49.456;11.134;2022-09-09T05:58:25;16.19;97.25
45463;SHT31;31209;49.456;11.134;2022-09-09T05:59:26;16.16;97.06
45463;SHT31;31209;49.456;11.134;2022-09-09T06:00:27;16.15;97.04
45463;SHT31;31209;49.456;11.134;2022-09-09T06:01:30;16.14;97.04
45463;SHT31;31209;49.456;11.134;2022-09-09T06:02:31;16.14;96.92
45463;SHT31;31209;49.456;11.134;2022-09-09T06:03:34;16.14;96.88
45463;SHT31;31209;49.456;11.134;2022-09-09T06:04:35;16.15;96.88
45463;SHT31;31209;49.456;11.134;2022-09-09T06:05:36;16.19;96.89
45463;SHT31;31209;49.456;11.134;2022-09-09T06:06:37;16.2;96.95
45463;SHT31;31209;49.456;11.134;2022-09-09T06:07:38;16.26;97.02
45463;SHT31;31209;49.456;11.134;2022-09-09T06:08:41;16.25;97.07
45463;SHT31;31209;49.456;11.134;2022-09-09T06:09:42;16.25;97.09
45463;SHT31;31209;49.456;11.134;2022-09-09T06:10:43;16.26;97.28
45463;SHT31;31209;49.456;11.134;2022-09-09T06:11:44;16.29;97.21
45463;SHT31;31209;49.456;11.134;2022-09-09T06:12:45;16.3;97.19
45463;SHT31;31209;49.456;11.134;2022-09-09T06:13:45;16.27;96.87
45463;SHT31;31209;49.456;11.134;2022-09-09T06:14:49;16.29;96.8
45463;SHT31;31209;49.456;11.134;2022-09-09T06:15:51;16.3;96.72
45463;SHT31;31209;49.456;11.134;2022-09-09T06:16:52;16.37;96.81
45463;SHT31;31209;49.456;11.134;2022-09-09T06:17:54;16.36;96.69
45463;SHT31;31209;49.456;11.134;2022-09-09T06:18:58;16.45;96.52
45463;SHT31;31209;49.456;11.134;2022-09-09T06:19:59;16.49;96.44
45463;SHT31;31209;49.456;11.134;2022-09-09T06:21:01;16.51;96.39
45463;SHT31;31209;49.456;11.134;2022-09-09T06:22:03;16.54;96.37
45463;SHT31;31209;49.456;11.134;2022-09-09T06:23:04;16.6;96.33
45463;SHT31;31209;49.456;11.134;2022-09-09T06:24:05;16.67;96.21
45463;SHT31;31209;49.456;11.134;2022-09-09T06:25:07;16.67;96.04
45463;SHT31;31209;49.456;11.134;2022-09-09T06:26:11;16.66;96.11
45463;SHT31;31209;49.456;11.134;2022-09-09T06:27:12;16.69;95.98
45463;SHT31;31209;49.456;11.134;2022-09-09T06:28:13;16.69;96.03
45463;SHT31;31209;49.456;11.134;2022-09-09T06:29:14;16.73;95.84
45463;SHT31;31209;49.456;11.134;2022-09-09T06:30:14;16.77;95.53
45463;SHT31;31209;49.456;11.134;2022-09-09T06:31:17;16.76;95.45
45463;SHT31;31209;49.456;11.134;2022-09-09T06:32:18;16.83;95.56
45463;SHT31;31209;49.456;11.134;2022-09-09T06:33:19;16.83;95.24
45463;SHT31;31209;49.456;11.134;2022-09-09T06:34:20;16.86;95.19
45463;SHT31;31209;49.456;11.134;2022-09-09T06:35:26;16.91;95.02